PWSweather.com
Personal Weather Stations
Station Observations
KTXSHORE2
Houston Yacht Club, Shoreacres, TX 77571

Houston Yacht ClubShoreacres, TX 77571

Lat: 29.622278, Lon: -94.99543

Elevation: 12

Station Type: Davis Vantagevue

Latest ConditionsUpdated 2:39:01 AM CST Tuesday, Nov 12, 2019
Currently Today's Max Today's Min Today's Average
Temperature 42.1°F5.6°C 43.5°F6.4°C 40.6°F4.8°C 41.9°F5.5°C
Dew Point -- -- -- --
Winds 30.0 mph NNW48.3 kmh NNW 36.0 mph -57.9 kmh - - 25.6 mph 41.2 kmh
Wind Gusts -- -- - -
Humidity 91% 97% 88% 93%
Pressure 30.32 in1026.8 mb 30.32 in1026.8 mb 30.25 in1024.4 mb -
Hour Temp Dew Point Humidity Winds Wind Gusts Pressure Precip Precip Rate Daily Precip Total
02:39 AM 42.1°F5.6°C -- 91% 30.0 mph NNW48.3 kmh NNW -- 30.32 in1026.8 mb 0.00 in0.0 mm 0.00 in0.0 mm 0.00 in0.0 mm
02:38 AM 42.1°F5.6°C -- 90% 23.9 mph NNW38.5 kmh NNW -- 30.32 in1026.8 mb 0.00 in0.0 mm 0.00 in0.0 mm 0.00 in0.0 mm
02:37 AM 41.7°F5.4°C -- 90% 23.0 mph N37.0 kmh N -- 30.32 in1026.8 mb 0.00 in0.0 mm 0.00 in0.0 mm 0.00 in0.0 mm
02:36 AM 41.7°F5.4°C -- 91% 34.9 mph N56.2 kmh N -- 30.32 in1026.8 mb 0.00 in0.0 mm 0.00 in0.0 mm 0.00 in0.0 mm
02:35 AM 41.7°F5.4°C -- 91% 25.9 mph N41.7 kmh N -- 30.31 in1026.4 mb 0.00 in0.0 mm 0.00 in0.0 mm 0.00 in0.0 mm
02:34 AM 41.5°F5.3°C -- 90% 28.0 mph NNW45.1 kmh NNW -- 30.31 in1026.4 mb 0.00 in0.0 mm 0.00 in0.0 mm 0.00 in0.0 mm
02:33 AM 41.7°F5.4°C -- 92% 34.0 mph N54.7 kmh N -- 30.31 in1026.4 mb 0.00 in0.0 mm 0.00 in0.0 mm 0.00 in0.0 mm
02:32 AM 41.7°F5.4°C -- 94% 34.0 mph N54.7 kmh N -- 30.31 in1026.4 mb 0.00 in0.0 mm 0.00 in0.0 mm 0.00 in0.0 mm
02:31 AM 41.5°F5.3°C -- 92% 25.9 mph N41.7 kmh N -- 30.31 in1026.4 mb 0.00 in0.0 mm 0.00 in0.0 mm 0.00 in0.0 mm
02:30 AM 41.4°F5.2°C -- 94% 25.1 mph NNW40.4 kmh NNW -- 30.31 in1026.4 mb 0.00 in0.0 mm 0.00 in0.0 mm 0.00 in0.0 mm
02:29 AM 41.2°F5.1°C -- 92% 21.9 mph NNW35.2 kmh NNW -- 30.31 in1026.4 mb 0.00 in0.0 mm 0.00 in0.0 mm 0.00 in0.0 mm
02:28 AM 41.2°F5.1°C -- 92% 30.0 mph N48.3 kmh N -- 30.31 in1026.4 mb 0.00 in0.0 mm 0.00 in0.0 mm 0.00 in0.0 mm
02:27 AM 41.2°F5.1°C -- 92% 25.1 mph NNW40.4 kmh NNW -- 30.31 in1026.4 mb 0.00 in0.0 mm 0.00 in0.0 mm 0.00 in0.0 mm
02:26 AM 41.2°F5.1°C -- 94% 21.9 mph NNW35.2 kmh NNW -- 30.31 in1026.4 mb 0.00 in0.0 mm 0.00 in0.0 mm 0.00 in0.0 mm
02:25 AM 41.0°F5.0°C -- 92% 21.9 mph NW35.2 kmh NW -- 30.31 in1026.4 mb 0.00 in0.0 mm 0.00 in0.0 mm 0.00 in0.0 mm
02:24 AM 41.0°F5.0°C -- 93% 27.1 mph NNW43.6 kmh NNW -- 30.30 in1026.1 mb 0.00 in0.0 mm 0.00 in0.0 mm 0.00 in0.0 mm
02:23 AM 40.8°F4.9°C -- 93% 21.0 mph NW33.8 kmh NW -- 30.30 in1026.1 mb 0.00 in0.0 mm 0.00 in0.0 mm 0.00 in0.0 mm
02:22 AM 40.8°F4.9°C -- 92% 27.1 mph NNW43.6 kmh NNW -- 30.30 in1026.1 mb 0.00 in0.0 mm 0.00 in0.0 mm 0.00 in0.0 mm
02:21 AM 41.0°F5.0°C -- 94% 23.0 mph NW37.0 kmh NW -- 30.30 in1026.1 mb 0.00 in0.0 mm 0.00 in0.0 mm 0.00 in0.0 mm
02:20 AM 41.0°F5.0°C -- 96% 29.1 mph NW46.8 kmh NW -- 30.30 in1026.1 mb 0.00 in0.0 mm 0.00 in0.0 mm 0.00 in0.0 mm
02:19 AM 40.6°F4.8°C -- 93% 21.9 mph NW35.2 kmh NW -- 30.30 in1026.1 mb 0.00 in0.0 mm 0.00 in0.0 mm 0.00 in0.0 mm
02:18 AM 40.6°F4.8°C -- 94% 25.9 mph NNW41.7 kmh NNW -- 30.30 in1026.1 mb 0.00 in0.0 mm 0.00 in0.0 mm 0.00 in0.0 mm
02:17 AM 40.6°F4.8°C -- 94% 27.1 mph NW43.6 kmh NW -- 30.29 in1025.7 mb 0.00 in0.0 mm 0.00 in0.0 mm 0.00 in0.0 mm
02:16 AM 40.6°F4.8°C -- 92% 19.9 mph NNW32.0 kmh NNW -- 30.29 in1025.7 mb 0.00 in0.0 mm 0.00 in0.0 mm 0.00 in0.0 mm
02:15 AM 40.8°F4.9°C -- 94% 21.9 mph NNW35.2 kmh NNW -- 30.29 in1025.7 mb 0.00 in0.0 mm 0.00 in0.0 mm 0.00 in0.0 mm
02:14 AM 40.8°F4.9°C -- 94% 28.0 mph NNW45.1 kmh NNW -- 30.29 in1025.7 mb 0.00 in0.0 mm 0.00 in0.0 mm 0.00 in0.0 mm
02:13 AM 40.8°F4.9°C -- 94% 23.0 mph NNW37.0 kmh NNW -- 30.29 in1025.7 mb 0.00 in0.0 mm 0.00 in0.0 mm 0.00 in0.0 mm
02:12 AM 40.8°F4.9°C -- 94% 25.1 mph NW40.4 kmh NW -- 30.29 in1025.7 mb 0.00 in0.0 mm 0.00 in0.0 mm 0.00 in0.0 mm
02:11 AM 40.8°F4.9°C -- 95% 19.9 mph NNW32.0 kmh NNW -- 30.29 in1025.7 mb 0.00 in0.0 mm 0.00 in0.0 mm 0.00 in0.0 mm
02:10 AM 41.2°F5.1°C -- 94% 27.1 mph NNW43.6 kmh NNW -- 30.29 in1025.7 mb 0.00 in0.0 mm 0.00 in0.0 mm 0.00 in0.0 mm
02:09 AM 40.8°F4.9°C -- 94% 23.0 mph NW37.0 kmh NW -- 30.29 in1025.7 mb 0.00 in0.0 mm 0.00 in0.0 mm 0.00 in0.0 mm
02:08 AM 40.8°F4.9°C -- 92% 25.1 mph NNW40.4 kmh NNW -- 30.29 in1025.7 mb 0.00 in0.0 mm 0.00 in0.0 mm 0.00 in0.0 mm
02:07 AM 41.0°F5.0°C -- 94% 21.9 mph NW35.2 kmh NW -- 30.29 in1025.7 mb 0.00 in0.0 mm 0.00 in0.0 mm 0.00 in0.0 mm
02:06 AM 41.2°F5.1°C -- 97% 25.1 mph NNW40.4 kmh NNW -- 30.29 in1025.7 mb 0.00 in0.0 mm 0.00 in0.0 mm 0.00 in0.0 mm
02:05 AM 41.2°F5.1°C -- 95% 21.9 mph NNW35.2 kmh NNW -- 30.29 in1025.7 mb 0.00 in0.0 mm 0.00 in0.0 mm 0.00 in0.0 mm
02:04 AM 40.8°F4.9°C -- 95% 23.9 mph NW38.5 kmh NW -- 30.29 in1025.7 mb 0.00 in0.0 mm 0.00 in0.0 mm 0.00 in0.0 mm
02:03 AM 40.8°F4.9°C -- 93% 21.0 mph NNW33.8 kmh NNW -- 30.28 in1025.4 mb 0.00 in0.0 mm 0.00 in0.0 mm 0.00 in0.0 mm
02:02 AM 40.8°F4.9°C -- 95% 23.0 mph NW37.0 kmh NW -- 30.28 in1025.4 mb 0.00 in0.0 mm 0.00 in0.0 mm 0.00 in0.0 mm
02:00 AM 40.8°F4.9°C -- 94% 19.0 mph NW30.6 kmh NW -- 30.29 in1025.7 mb 0.00 in0.0 mm 0.00 in0.0 mm 0.00 in0.0 mm
01:59 AM 40.6°F4.8°C -- 92% 23.0 mph NW37.0 kmh NW -- 30.28 in1025.4 mb 0.00 in0.0 mm 0.00 in0.0 mm 0.00 in0.0 mm
01:58 AM 40.8°F4.9°C -- 93% 23.9 mph NNW38.5 kmh NNW -- 30.28 in1025.4 mb 0.00 in0.0 mm 0.00 in0.0 mm 0.00 in0.0 mm
01:57 AM 40.8°F4.9°C -- 93% 27.1 mph NW43.6 kmh NW -- 30.29 in1025.7 mb 0.00 in0.0 mm 0.00 in0.0 mm 0.00 in0.0 mm
01:56 AM 41.2°F5.1°C -- 93% 28.0 mph NNW45.1 kmh NNW -- 30.28 in1025.4 mb 0.00 in0.0 mm 0.00 in0.0 mm 0.00 in0.0 mm
01:55 AM 41.2°F5.1°C -- 94% 25.9 mph NNW41.7 kmh NNW -- 30.29 in1025.7 mb 0.00 in0.0 mm 0.00 in0.0 mm 0.00 in0.0 mm
01:54 AM 41.2°F5.1°C -- 94% 28.0 mph N45.1 kmh N -- 30.28 in1025.4 mb 0.00 in0.0 mm 0.00 in0.0 mm 0.00 in0.0 mm
01:53 AM 41.2°F5.1°C -- 95% 23.0 mph N37.0 kmh N -- 30.28 in1025.4 mb 0.00 in0.0 mm 0.00 in0.0 mm 0.00 in0.0 mm
01:52 AM 41.0°F5.0°C -- 94% 25.1 mph NW40.4 kmh NW -- 30.28 in1025.4 mb 0.00 in0.0 mm 0.00 in0.0 mm 0.00 in0.0 mm
01:51 AM 41.0°F5.0°C -- 93% 21.0 mph NW33.8 kmh NW -- 30.28 in1025.4 mb 0.00 in0.0 mm 0.00 in0.0 mm 0.00 in0.0 mm
01:50 AM 41.2°F5.1°C -- 94% 27.1 mph N43.6 kmh N -- 30.28 in1025.4 mb 0.00 in0.0 mm 0.00 in0.0 mm 0.00 in0.0 mm
01:49 AM 41.4°F5.2°C -- 93% 25.9 mph N41.7 kmh N -- 30.28 in1025.4 mb 0.00 in0.0 mm 0.00 in0.0 mm 0.00 in0.0 mm
01:48 AM 41.4°F5.2°C -- 94% 28.0 mph NNW45.1 kmh NNW -- 30.28 in1025.4 mb 0.00 in0.0 mm 0.00 in0.0 mm 0.00 in0.0 mm
01:47 AM 41.4°F5.2°C -- 95% 29.1 mph NW46.8 kmh NW -- 30.28 in1025.4 mb 0.00 in0.0 mm 0.00 in0.0 mm 0.00 in0.0 mm
01:46 AM 41.2°F5.1°C -- 94% 28.0 mph NNW45.1 kmh NNW -- 30.28 in1025.4 mb 0.00 in0.0 mm 0.00 in0.0 mm 0.00 in0.0 mm
01:45 AM 41.2°F5.1°C -- 94% 25.1 mph NNW40.4 kmh NNW -- 30.28 in1025.4 mb 0.00 in0.0 mm 0.00 in0.0 mm 0.00 in0.0 mm
01:44 AM 41.2°F5.1°C -- 95% 25.9 mph N41.7 kmh N -- 30.28 in1025.4 mb 0.00 in0.0 mm 0.00 in0.0 mm 0.00 in0.0 mm
01:43 AM 41.5°F5.3°C -- 95% 29.1 mph NW46.8 kmh NW -- 30.28 in1025.4 mb 0.00 in0.0 mm 0.00 in0.0 mm 0.00 in0.0 mm
01:42 AM 41.5°F5.3°C -- 94% 29.1 mph NNW46.8 kmh NNW -- 30.28 in1025.4 mb 0.00 in0.0 mm 0.00 in0.0 mm 0.00 in0.0 mm
01:41 AM 41.4°F5.2°C -- 93% 19.0 mph NW30.6 kmh NW -- 30.27 in1025.1 mb 0.00 in0.0 mm 0.00 in0.0 mm 0.00 in0.0 mm
01:40 AM 41.4°F5.2°C -- 94% 30.0 mph NNW48.3 kmh NNW -- 30.27 in1025.1 mb 0.00 in0.0 mm 0.00 in0.0 mm 0.00 in0.0 mm
01:39 AM 41.4°F5.2°C -- 93% 30.0 mph NNW48.3 kmh NNW -- 30.27 in1025.1 mb 0.00 in0.0 mm 0.00 in0.0 mm 0.00 in0.0 mm
01:38 AM 41.4°F5.2°C -- 93% 25.1 mph NNW40.4 kmh NNW -- 30.27 in1025.1 mb 0.00 in0.0 mm 0.00 in0.0 mm 0.00 in0.0 mm
01:37 AM 41.5°F5.3°C -- 94% 25.1 mph N40.4 kmh N -- 30.28 in1025.4 mb 0.00 in0.0 mm 0.00 in0.0 mm 0.00 in0.0 mm
01:36 AM 41.5°F5.3°C -- 92% 21.9 mph NNW35.2 kmh NNW -- 30.27 in1025.1 mb 0.00 in0.0 mm 0.00 in0.0 mm 0.00 in0.0 mm
01:35 AM 41.7°F5.4°C -- 94% 25.9 mph NNW41.7 kmh NNW -- 30.27 in1025.1 mb 0.00 in0.0 mm 0.00 in0.0 mm 0.00 in0.0 mm
01:34 AM 41.7°F5.4°C -- 95% 30.0 mph NNW48.3 kmh NNW -- 30.27 in1025.1 mb 0.00 in0.0 mm 0.00 in0.0 mm 0.00 in0.0 mm
01:33 AM 41.7°F5.4°C -- 95% 28.0 mph NNW45.1 kmh NNW -- 30.27 in1025.1 mb 0.00 in0.0 mm 0.00 in0.0 mm 0.00 in0.0 mm
01:32 AM 41.5°F5.3°C -- 94% 25.1 mph NNW40.4 kmh NNW -- 30.27 in1025.1 mb 0.00 in0.0 mm 0.00 in0.0 mm 0.00 in0.0 mm
01:31 AM 41.7°F5.4°C -- 94% 25.9 mph NNW41.7 kmh NNW -- 30.27 in1025.1 mb 0.00 in0.0 mm 0.00 in0.0 mm 0.00 in0.0 mm
01:30 AM 41.5°F5.3°C -- 94% 25.1 mph NNW40.4 kmh NNW -- 30.28 in1025.4 mb 0.00 in0.0 mm 0.00 in0.0 mm 0.00 in0.0 mm
01:29 AM 41.5°F5.3°C -- 94% 21.9 mph NW35.2 kmh NW -- 30.28 in1025.4 mb 0.00 in0.0 mm 0.00 in0.0 mm 0.00 in0.0 mm
01:28 AM 41.7°F5.4°C -- 93% 28.0 mph N45.1 kmh N -- 30.28 in1025.4 mb 0.00 in0.0 mm 0.00 in0.0 mm 0.00 in0.0 mm
01:27 AM 41.7°F5.4°C -- 93% 19.0 mph NNW30.6 kmh NNW -- 30.28 in1025.4 mb 0.00 in0.0 mm 0.00 in0.0 mm 0.00 in0.0 mm
01:26 AM 41.5°F5.3°C -- 93% 21.9 mph NNW35.2 kmh NNW -- 30.28 in1025.4 mb 0.00 in0.0 mm 0.00 in0.0 mm 0.00 in0.0 mm
01:25 AM 41.7°F5.4°C -- 91% 27.1 mph NNW43.6 kmh NNW -- 30.28 in1025.4 mb 0.00 in0.0 mm 0.00 in0.0 mm 0.00 in0.0 mm
01:24 AM 42.1°F5.6°C -- 95% 23.9 mph N38.5 kmh N -- 30.28 in1025.4 mb 0.00 in0.0 mm 0.00 in0.0 mm 0.00 in0.0 mm
01:23 AM 42.1°F5.6°C -- 94% 21.0 mph NW33.8 kmh NW -- 30.28 in1025.4 mb 0.00 in0.0 mm 0.00 in0.0 mm 0.00 in0.0 mm
01:22 AM 42.1°F5.6°C -- 95% 23.0 mph NW37.0 kmh NW -- 30.28 in1025.4 mb 0.00 in0.0 mm 0.00 in0.0 mm 0.00 in0.0 mm
01:21 AM 42.1°F5.6°C -- 93% 25.9 mph NNW41.7 kmh NNW -- 30.28 in1025.4 mb 0.00 in0.0 mm 0.00 in0.0 mm 0.00 in0.0 mm
01:20 AM 41.9°F5.5°C -- 94% 21.9 mph NW35.2 kmh NW -- 30.28 in1025.4 mb 0.00 in0.0 mm 0.00 in0.0 mm 0.00 in0.0 mm
01:19 AM 41.7°F5.4°C -- 90% 23.9 mph N38.5 kmh N -- 30.28 in1025.4 mb 0.00 in0.0 mm 0.00 in0.0 mm 0.00 in0.0 mm
01:18 AM 41.5°F5.3°C -- 90% 25.1 mph NNW40.4 kmh NNW -- 30.28 in1025.4 mb 0.00 in0.0 mm 0.00 in0.0 mm 0.00 in0.0 mm
01:17 AM 41.5°F5.3°C -- 90% 25.1 mph NNW40.4 kmh NNW -- 30.28 in1025.4 mb 0.00 in0.0 mm 0.00 in0.0 mm 0.00 in0.0 mm
01:16 AM 41.7°F5.4°C -- 91% 29.1 mph NW46.8 kmh NW -- 30.28 in1025.4 mb 0.00 in0.0 mm 0.00 in0.0 mm 0.00 in0.0 mm
01:15 AM 42.1°F5.6°C -- 91% 25.1 mph NNW40.4 kmh NNW -- 30.28 in1025.4 mb 0.00 in0.0 mm 0.00 in0.0 mm 0.00 in0.0 mm
01:14 AM 42.1°F5.6°C -- 94% 29.1 mph N46.8 kmh N -- 30.28 in1025.4 mb 0.00 in0.0 mm 0.00 in0.0 mm 0.00 in0.0 mm
01:13 AM 42.1°F5.6°C -- 90% 23.9 mph NNW38.5 kmh NNW -- 30.28 in1025.4 mb 0.00 in0.0 mm 0.00 in0.0 mm 0.00 in0.0 mm
01:12 AM 42.3°F5.7°C -- 93% 25.9 mph NNW41.7 kmh NNW -- 30.28 in1025.4 mb 0.00 in0.0 mm 0.00 in0.0 mm 0.00 in0.0 mm
01:11 AM 42.1°F5.6°C -- 93% 21.9 mph NNW35.2 kmh NNW -- 30.28 in1025.4 mb 0.00 in0.0 mm 0.00 in0.0 mm 0.00 in0.0 mm
01:10 AM 42.1°F5.6°C -- 91% 25.1 mph NNW40.4 kmh NNW -- 30.27 in1025.1 mb 0.00 in0.0 mm 0.00 in0.0 mm 0.00 in0.0 mm
01:09 AM 42.3°F5.7°C -- 95% 25.9 mph N41.7 kmh N -- 30.27 in1025.1 mb 0.00 in0.0 mm 0.00 in0.0 mm 0.00 in0.0 mm
01:08 AM 42.1°F5.6°C -- 94% 19.0 mph NW30.6 kmh NW -- 30.27 in1025.1 mb 0.00 in0.0 mm 0.00 in0.0 mm 0.00 in0.0 mm
01:07 AM 41.9°F5.5°C -- 92% 23.0 mph NNW37.0 kmh NNW -- 30.27 in1025.1 mb 0.00 in0.0 mm 0.00 in0.0 mm 0.00 in0.0 mm
01:06 AM 41.9°F5.5°C -- 91% 21.9 mph NW35.2 kmh NW -- 30.27 in1025.1 mb 0.00 in0.0 mm 0.00 in0.0 mm 0.00 in0.0 mm
01:05 AM 41.9°F5.5°C -- 94% 28.0 mph NNW45.1 kmh NNW -- 30.27 in1025.1 mb 0.00 in0.0 mm 0.00 in0.0 mm 0.00 in0.0 mm
01:04 AM 41.7°F5.4°C -- 93% 21.0 mph NNW33.8 kmh NNW -- 30.27 in1025.1 mb 0.00 in0.0 mm 0.00 in0.0 mm 0.00 in0.0 mm
01:03 AM 42.1°F5.6°C -- 92% 25.9 mph NNW41.7 kmh NNW -- 30.27 in1025.1 mb 0.00 in0.0 mm 0.00 in0.0 mm 0.00 in0.0 mm
01:02 AM 42.3°F5.7°C -- 93% 32.0 mph NNW51.5 kmh NNW -- 30.26 in1024.7 mb 0.00 in0.0 mm 0.00 in0.0 mm 0.00 in0.0 mm
01:01 AM 42.1°F5.6°C -- 93% 27.1 mph N43.6 kmh N -- 30.26 in1024.7 mb 0.00 in0.0 mm 0.00 in0.0 mm 0.00 in0.0 mm
01:00 AM 42.4°F5.8°C -- 93% 30.0 mph NNW48.3 kmh NNW -- 30.26 in1024.7 mb 0.00 in0.0 mm 0.00 in0.0 mm 0.00 in0.0 mm
12:59 AM 42.4°F5.8°C -- 95% 29.1 mph NNW46.8 kmh NNW -- 30.26 in1024.7 mb 0.00 in0.0 mm 0.00 in0.0 mm 0.00 in0.0 mm
12:58 AM 42.3°F5.7°C -- 92% 25.9 mph NNW41.7 kmh NNW -- 30.26 in1024.7 mb 0.00 in0.0 mm 0.00 in0.0 mm 0.00 in0.0 mm
12:57 AM 42.4°F5.8°C -- 94% 27.1 mph NNW43.6 kmh NNW -- 30.26 in1024.7 mb 0.00 in0.0 mm 0.00 in0.0 mm 0.00 in0.0 mm
12:56 AM 42.4°F5.8°C -- 94% 25.9 mph NNW41.7 kmh NNW -- 30.26 in1024.7 mb 0.00 in0.0 mm 0.00 in0.0 mm 0.00 in0.0 mm
12:55 AM 42.3°F5.7°C -- 93% 21.9 mph NW35.2 kmh NW -- 30.26 in1024.7 mb 0.00 in0.0 mm 0.00 in0.0 mm 0.00 in0.0 mm
12:54 AM 42.3°F5.7°C -- 92% 28.0 mph N45.1 kmh N -- 30.26 in1024.7 mb 0.00 in0.0 mm 0.00 in0.0 mm 0.00 in0.0 mm
12:53 AM 42.3°F5.7°C -- 92% 28.0 mph NNW45.1 kmh NNW -- 30.26 in1024.7 mb 0.00 in0.0 mm 0.00 in0.0 mm 0.00 in0.0 mm
12:52 AM 42.3°F5.7°C -- 93% 29.1 mph NW46.8 kmh NW -- 30.26 in1024.7 mb 0.00 in0.0 mm 0.00 in0.0 mm 0.00 in0.0 mm
12:51 AM 42.3°F5.7°C -- 93% 29.1 mph NNW46.8 kmh NNW -- 30.26 in1024.7 mb 0.00 in0.0 mm 0.00 in0.0 mm 0.00 in0.0 mm
12:50 AM 42.1°F5.6°C -- 90% 30.0 mph N48.3 kmh N -- 30.26 in1024.7 mb 0.00 in0.0 mm 0.00 in0.0 mm 0.00 in0.0 mm
12:49 AM 42.4°F5.8°C -- 94% 31.1 mph NNW50.1 kmh NNW -- 30.26 in1024.7 mb 0.00 in0.0 mm 0.00 in0.0 mm 0.00 in0.0 mm
12:48 AM 42.3°F5.7°C -- 92% 28.0 mph NNW45.1 kmh NNW -- 30.26 in1024.7 mb 0.00 in0.0 mm 0.00 in0.0 mm 0.00 in0.0 mm
12:47 AM 42.3°F5.7°C -- 90% 23.9 mph NNW38.5 kmh NNW -- 30.26 in1024.7 mb 0.00 in0.0 mm 0.00 in0.0 mm 0.00 in0.0 mm
12:46 AM 42.4°F5.8°C -- 92% 29.1 mph NNW46.8 kmh NNW -- 30.26 in1024.7 mb 0.00 in0.0 mm 0.00 in0.0 mm 0.00 in0.0 mm
12:45 AM 42.4°F5.8°C -- 92% 23.0 mph NNW37.0 kmh NNW -- 30.26 in1024.7 mb 0.00 in0.0 mm 0.00 in0.0 mm 0.00 in0.0 mm
12:44 AM 42.4°F5.8°C -- 93% 21.9 mph NNW35.2 kmh NNW -- 30.26 in1024.7 mb 0.00 in0.0 mm 0.00 in0.0 mm 0.00 in0.0 mm
12:43 AM 42.4°F5.8°C -- 93% 27.1 mph NNW43.6 kmh NNW -- 30.26 in1024.7 mb 0.00 in0.0 mm 0.00 in0.0 mm 0.00 in0.0 mm
12:42 AM 42.4°F5.8°C -- 91% 23.9 mph NW38.5 kmh NW -- 30.26 in1024.7 mb 0.00 in0.0 mm 0.00 in0.0 mm 0.00 in0.0 mm
12:41 AM 42.4°F5.8°C -- 93% 23.0 mph NNW37.0 kmh NNW -- 30.26 in1024.7 mb 0.00 in0.0 mm 0.00 in0.0 mm 0.00 in0.0 mm
12:40 AM 42.3°F5.7°C -- 92% 21.9 mph NNW35.2 kmh NNW -- 30.26 in1024.7 mb 0.00 in0.0 mm 0.00 in0.0 mm 0.00 in0.0 mm
12:39 AM 42.3°F5.7°C -- 90% 25.1 mph NW40.4 kmh NW -- 30.26 in1024.7 mb 0.00 in0.0 mm 0.00 in0.0 mm 0.00 in0.0 mm
12:38 AM 42.3°F5.7°C -- 89% 23.0 mph NW37.0 kmh NW -- 30.27 in1025.1 mb 0.00 in0.0 mm 0.00 in0.0 mm 0.00 in0.0 mm
12:37 AM 42.3°F5.7°C -- 90% 28.0 mph NW45.1 kmh NW -- 30.27 in1025.1 mb 0.00 in0.0 mm 0.00 in0.0 mm 0.00 in0.0 mm
12:36 AM 42.4°F5.8°C -- 91% 29.1 mph NW46.8 kmh NW -- 30.27 in1025.1 mb 0.00 in0.0 mm 0.00 in0.0 mm 0.00 in0.0 mm
12:35 AM 42.6°F5.9°C -- 92% 25.1 mph NNW40.4 kmh NNW -- 30.27 in1025.1 mb 0.00 in0.0 mm 0.00 in0.0 mm 0.00 in0.0 mm
12:34 AM 42.6°F5.9°C -- 91% 19.9 mph NW32.0 kmh NW -- 30.27 in1025.1 mb 0.00 in0.0 mm 0.00 in0.0 mm 0.00 in0.0 mm
12:33 AM 42.8°F6.0°C -- 91% 19.9 mph NNW32.0 kmh NNW -- 30.27 in1025.1 mb 0.00 in0.0 mm 0.00 in0.0 mm 0.00 in0.0 mm
12:32 AM 42.8°F6.0°C -- 91% 23.0 mph N37.0 kmh N -- 30.26 in1024.7 mb 0.00 in0.0 mm 0.00 in0.0 mm 0.00 in0.0 mm
12:31 AM 42.6°F5.9°C -- 91% 21.0 mph NNW33.8 kmh NNW -- 30.26 in1024.7 mb 0.00 in0.0 mm 0.00 in0.0 mm 0.00 in0.0 mm
12:30 AM 42.8°F6.0°C -- 90% 21.9 mph NNW35.2 kmh NNW -- 30.26 in1024.7 mb 0.00 in0.0 mm 0.00 in0.0 mm 0.00 in0.0 mm
12:29 AM 43.0°F6.1°C -- 92% 23.9 mph NNE38.5 kmh NNE -- 30.26 in1024.7 mb 0.00 in0.0 mm 0.00 in0.0 mm 0.00 in0.0 mm
12:28 AM 43.2°F6.2°C -- 94% 25.1 mph NNW40.4 kmh NNW -- 30.26 in1024.7 mb 0.00 in0.0 mm 0.00 in0.0 mm 0.00 in0.0 mm
12:27 AM 43.0°F6.1°C -- 93% 28.0 mph N45.1 kmh N -- 30.26 in1024.7 mb 0.00 in0.0 mm 0.00 in0.0 mm 0.00 in0.0 mm
12:26 AM 42.6°F5.9°C -- 91% 23.0 mph NNW37.0 kmh NNW -- 30.25 in1024.4 mb 0.00 in0.0 mm 0.00 in0.0 mm 0.00 in0.0 mm
12:25 AM 42.6°F5.9°C -- 91% 31.1 mph NNW50.1 kmh NNW -- 30.25 in1024.4 mb 0.00 in0.0 mm 0.00 in0.0 mm 0.00 in0.0 mm
12:24 AM 42.6°F5.9°C -- 94% 30.0 mph NW48.3 kmh NW -- 30.26 in1024.7 mb 0.00 in0.0 mm 0.00 in0.0 mm 0.00 in0.0 mm
12:23 AM 43.2°F6.2°C -- 94% 28.0 mph NW45.1 kmh NW -- 30.25 in1024.4 mb 0.00 in0.0 mm 0.00 in0.0 mm 0.00 in0.0 mm
12:22 AM 43.0°F6.1°C -- 92% 25.1 mph NW40.4 kmh NW -- 30.25 in1024.4 mb 0.00 in0.0 mm 0.00 in0.0 mm 0.00 in0.0 mm
12:21 AM 42.6°F5.9°C -- 91% 21.9 mph NNW35.2 kmh NNW -- 30.25 in1024.4 mb 0.00 in0.0 mm 0.00 in0.0 mm 0.00 in0.0 mm
12:20 AM 42.8°F6.0°C -- 91% 30.0 mph NW48.3 kmh NW -- 30.25 in1024.4 mb 0.00 in0.0 mm 0.00 in0.0 mm 0.00 in0.0 mm
12:19 AM 43.0°F6.1°C -- 91% 30.0 mph NW48.3 kmh NW -- 30.25 in1024.4 mb 0.00 in0.0 mm 0.00 in0.0 mm 0.00 in0.0 mm
12:18 AM 43.0°F6.1°C -- 90% 29.1 mph NW46.8 kmh NW -- 30.26 in1024.7 mb 0.00 in0.0 mm 0.00 in0.0 mm 0.00 in0.0 mm
12:17 AM 43.2°F6.2°C -- 92% 30.0 mph NNW48.3 kmh NNW -- 30.25 in1024.4 mb 0.00 in0.0 mm 0.00 in0.0 mm 0.00 in0.0 mm
12:16 AM 43.2°F6.2°C -- 94% 27.1 mph NW43.6 kmh NW -- 30.25 in1024.4 mb 0.00 in0.0 mm 0.00 in0.0 mm 0.00 in0.0 mm
12:15 AM 43.0°F6.1°C -- 90% 25.1 mph NNW40.4 kmh NNW -- 30.25 in1024.4 mb 0.00 in0.0 mm 0.00 in0.0 mm 0.00 in0.0 mm
12:14 AM 43.2°F6.2°C -- 92% 27.1 mph NNW43.6 kmh NNW -- 30.25 in1024.4 mb 0.00 in0.0 mm 0.00 in0.0 mm 0.00 in0.0 mm
12:13 AM 43.2°F6.2°C -- 92% 25.1 mph NNW40.4 kmh NNW -- 30.25 in1024.4 mb 0.00 in0.0 mm 0.00 in0.0 mm 0.00 in0.0 mm
12:12 AM 42.8°F6.0°C -- 89% 27.1 mph NW43.6 kmh NW -- 30.25 in1024.4 mb 0.00 in0.0 mm 0.00 in0.0 mm 0.00 in0.0 mm
12:11 AM 43.0°F6.1°C -- 90% 23.0 mph NNW37.0 kmh NNW -- 30.25 in1024.4 mb 0.00 in0.0 mm 0.00 in0.0 mm 0.00 in0.0 mm
12:10 AM 43.2°F6.2°C -- 91% 25.1 mph NNW40.4 kmh NNW -- 30.25 in1024.4 mb 0.00 in0.0 mm 0.00 in0.0 mm 0.00 in0.0 mm
12:09 AM 43.0°F6.1°C -- 90% 25.9 mph NNW41.7 kmh NNW -- 30.26 in1024.7 mb 0.00 in0.0 mm 0.00 in0.0 mm 0.00 in0.0 mm
12:08 AM 43.2°F6.2°C -- 91% 27.1 mph NNW43.6 kmh NNW -- 30.26 in1024.7 mb 0.00 in0.0 mm 0.00 in0.0 mm 0.00 in0.0 mm
12:07 AM 43.2°F6.2°C -- 89% 21.9 mph NW35.2 kmh NW -- 30.26 in1024.7 mb 0.00 in0.0 mm 0.00 in0.0 mm 0.00 in0.0 mm
12:06 AM 43.3°F6.3°C -- 88% 25.1 mph NNW40.4 kmh NNW -- 30.25 in1024.4 mb 0.00 in0.0 mm 0.00 in0.0 mm 0.00 in0.0 mm
12:05 AM 43.2°F6.2°C -- 88% 25.9 mph NNW41.7 kmh NNW -- 30.25 in1024.4 mb 0.00 in0.0 mm 0.00 in0.0 mm 0.00 in0.0 mm
12:04 AM 43.3°F6.3°C -- 91% 29.1 mph NNW46.8 kmh NNW -- 30.25 in1024.4 mb 0.00 in0.0 mm 0.00 in0.0 mm 0.00 in0.0 mm
12:03 AM 43.5°F6.4°C -- 91% 29.1 mph NNW46.8 kmh NNW -- 30.26 in1024.7 mb 0.00 in0.0 mm 0.00 in0.0 mm 0.00 in0.0 mm
12:02 AM 43.5°F6.4°C -- 93% 30.0 mph NNW48.3 kmh NNW -- 30.25 in1024.4 mb 0.00 in0.0 mm 0.00 in0.0 mm 0.00 in0.0 mm
12:01 AM 43.5°F6.4°C -- 91% 25.1 mph NNW40.4 kmh NNW -- 30.25 in1024.4 mb 0.00 in0.0 mm 0.00 in0.0 mm 0.00 in0.0 mm
12:00 AM 43.5°F6.4°C -- 91% 25.1 mph NW40.4 kmh NW -- 30.25 in1024.4 mb 0.00 in0.0 mm 0.00 in0.0 mm 0.00 in0.0 mm